createdAt,value
2024-02-02T00:00:18.221Z,3.20
2024-02-02T00:02:46.631Z,3.57
2024-02-02T00:05:15.218Z,3.23
2024-02-02T00:07:44.076Z,3.07
2024-02-02T00:10:13.665Z,2.87
2024-02-02T00:12:43.120Z,3.47
2024-02-02T00:15:12.198Z,3.80
2024-02-02T00:17:40.361Z,3.97
2024-02-02T00:20:11.655Z,3.37
2024-02-02T00:22:42.520Z,3.73
2024-02-02T00:25:12.112Z,3.67
2024-02-02T00:27:41.529Z,4.10
2024-02-02T00:30:12.452Z,3.63
2024-02-02T00:32:45.428Z,3.50
2024-02-02T00:35:15.883Z,3.20
2024-02-02T00:37:45.694Z,4.00
2024-02-02T00:40:20.773Z,3.97
2024-02-02T00:42:50.511Z,3.43
2024-02-02T00:45:26.274Z,3.50
2024-02-02T00:47:55.287Z,3.20
2024-02-02T00:50:23.601Z,4.00
2024-02-02T00:52:52.113Z,3.80
2024-02-02T00:55:20.190Z,3.57
2024-02-02T00:57:54.185Z,3.63
2024-02-02T01:00:22.519Z,3.97
2024-02-02T01:02:50.814Z,3.80
2024-02-02T01:05:19.374Z,3.40
2024-02-02T01:07:52.264Z,3.33
2024-02-02T01:10:21.463Z,3.43
2024-02-02T01:12:49.591Z,3.03
2024-02-02T01:15:20.413Z,3.23
2024-02-02T01:17:49.556Z,3.80
2024-02-02T01:20:18.262Z,2.87
2024-02-02T01:22:50.164Z,3.50
2024-02-02T01:25:18.359Z,3.97
2024-02-02T01:27:47.108Z,3.23
2024-02-02T01:30:15.418Z,3.23
2024-02-02T01:32:44.931Z,3.37
2024-02-02T01:35:17.625Z,2.97
2024-02-02T01:37:45.963Z,3.10
2024-02-02T01:40:16.793Z,3.70
2024-02-02T01:42:46.116Z,3.00
2024-02-02T01:45:14.322Z,3.30
2024-02-02T01:47:44.551Z,2.90
2024-02-02T01:50:14.076Z,2.77
2024-02-02T01:52:43.207Z,3.20
2024-02-02T01:55:11.608Z,2.90
2024-02-02T01:57:41.253Z,4.30
2024-02-02T02:00:14.985Z,2.87
2024-02-02T02:03:16.068Z,3.40
2024-02-02T02:05:51.672Z,2.97
2024-02-02T02:08:22.133Z,2.67
2024-02-02T02:10:53.739Z,3.43
2024-02-02T02:13:27.436Z,3.40
2024-02-02T02:15:59.180Z,3.57
2024-02-02T02:18:29.353Z,3.07
2024-02-02T02:21:02.990Z,3.20
2024-02-02T02:23:41.637Z,3.00
2024-02-02T02:26:09.827Z,2.80
2024-02-02T02:28:39.993Z,3.37
2024-02-02T02:31:12.225Z,3.30
2024-02-02T02:33:44.371Z,3.67
2024-02-02T02:36:16.260Z,2.90
2024-02-02T02:38:46.432Z,2.80
2024-02-02T02:41:18.186Z,3.00
2024-02-02T02:43:46.959Z,3.20
2024-02-02T02:46:16.195Z,3.50
2024-02-02T02:48:44.569Z,3.33
2024-02-02T02:51:13.223Z,3.20
2024-02-02T02:53:41.419Z,2.83
2024-02-02T02:56:14.205Z,3.30
2024-02-02T02:58:43.150Z,3.97
2024-02-02T03:01:11.321Z,4.07
2024-02-02T03:03:40.274Z,3.50
2024-02-02T03:06:09.132Z,3.60
2024-02-02T03:08:40.243Z,3.53
2024-02-02T03:11:08.318Z,3.27
2024-02-02T03:13:37.795Z,3.60
2024-02-02T03:16:07.153Z,3.10
2024-02-02T03:18:35.386Z,3.43
2024-02-02T03:21:05.337Z,2.93
2024-02-02T03:23:33.474Z,3.60
2024-02-02T03:26:02.274Z,4.40
2024-02-02T03:28:30.552Z,3.20
2024-02-02T03:31:00.353Z,3.60
2024-02-02T03:33:29.027Z,3.33
2024-02-02T03:35:57.345Z,3.70
2024-02-02T03:38:29.580Z,3.50
2024-02-02T03:40:57.686Z,3.13
2024-02-02T03:43:27.183Z,3.57
2024-02-02T03:45:56.146Z,3.23
2024-02-02T03:48:25.674Z,3.30
2024-02-02T03:50:57.302Z,3.40
2024-02-02T03:53:26.177Z,3.70
2024-02-02T03:55:54.392Z,4.00
2024-02-02T03:58:22.964Z,3.30
2024-02-02T04:00:52.181Z,2.90
2024-02-02T04:03:20.613Z,3.37
2024-02-02T04:05:53.952Z,4.03
2024-02-02T04:08:23.237Z,3.90
2024-02-02T04:10:51.470Z,3.77
2024-02-02T04:13:20.182Z,3.50
2024-02-02T04:15:48.692Z,3.60
2024-02-02T04:18:17.376Z,4.30
2024-02-02T04:20:46.520Z,3.63
2024-02-02T04:23:17.397Z,3.87
2024-02-02T04:25:46.077Z,4.23
2024-02-02T04:28:15.067Z,3.90
2024-02-02T04:30:43.767Z,3.90
2024-02-02T04:33:12.766Z,4.23
2024-02-02T04:35:42.306Z,4.00
2024-02-02T04:38:10.473Z,4.03
2024-02-02T04:40:40.342Z,3.70
2024-02-02T04:43:09.250Z,4.20
2024-02-02T04:45:37.974Z,4.47
2024-02-02T04:48:10.324Z,3.93
2024-02-02T04:50:38.569Z,4.20
2024-02-02T04:53:08.253Z,4.03
2024-02-02T04:55:36.534Z,4.23
2024-02-02T04:58:10.584Z,4.20
2024-02-02T05:00:39.419Z,3.90
2024-02-02T05:03:07.769Z,3.60
2024-02-02T05:05:36.096Z,4.10
2024-02-02T05:08:04.527Z,4.27
2024-02-02T05:10:33.559Z,4.57
2024-02-02T05:13:01.669Z,3.90
2024-02-02T05:15:31.395Z,3.90
2024-02-02T05:17:59.812Z,3.23
2024-02-02T05:20:28.266Z,3.80
2024-02-02T05:22:57.188Z,3.93
2024-02-02T05:25:26.425Z,4.43
2024-02-02T05:27:55.204Z,4.60
2024-02-02T05:30:23.476Z,3.97
2024-02-02T05:32:55.214Z,4.20
2024-02-02T05:35:23.445Z,4.97
2024-02-02T05:37:52.234Z,4.03
2024-02-02T05:40:20.422Z,4.10
2024-02-02T05:42:48.664Z,3.13
2024-02-02T05:45:17.219Z,4.00
2024-02-02T05:47:49.302Z,4.00
2024-02-02T05:50:18.934Z,3.50
2024-02-02T05:52:47.992Z,3.83
2024-02-02T05:55:16.226Z,3.73
2024-02-02T05:57:45.507Z,3.57
2024-02-02T06:00:20.305Z,3.40
2024-02-02T06:02:49.090Z,3.63
2024-02-02T06:05:19.532Z,4.27
2024-02-02T06:07:50.384Z,4.27
2024-02-02T06:10:18.582Z,4.10
2024-02-02T06:12:47.331Z,4.33
2024-02-02T06:15:16.267Z,4.10
2024-02-02T06:17:44.375Z,3.50
2024-02-02T06:20:14.285Z,4.00
2024-02-02T06:22:46.414Z,4.37
2024-02-02T06:25:15.194Z,3.90
2024-02-02T06:27:45.059Z,4.50
2024-02-02T06:30:16.802Z,3.57
2024-02-02T06:32:48.280Z,4.30
2024-02-02T06:35:17.350Z,3.97
2024-02-02T06:37:47.355Z,3.87
2024-02-02T06:40:15.708Z,3.47
2024-02-02T06:42:44.206Z,3.80
2024-02-02T06:45:12.854Z,4.37
2024-02-02T06:47:41.513Z,3.60
2024-02-02T06:50:10.922Z,4.33
2024-02-02T06:52:39.111Z,4.20
2024-02-02T06:55:09.529Z,3.90
2024-02-02T06:57:38.100Z,4.00
2024-02-02T07:00:13.790Z,4.03
2024-02-02T07:02:42.037Z,3.50
2024-02-02T07:05:10.389Z,4.00
2024-02-02T07:07:40.220Z,3.80
2024-02-02T07:10:15.360Z,4.07
2024-02-02T07:12:59.612Z,3.87
2024-02-02T07:15:29.995Z,4.80
2024-02-02T07:18:01.704Z,4.23
2024-02-02T07:21:05.669Z,4.17
2024-02-02T07:23:40.808Z,3.43
2024-02-02T07:26:28.124Z,4.20
2024-02-02T07:28:57.227Z,3.70
2024-02-02T07:31:42.676Z,4.10
2024-02-02T07:34:39.878Z,3.53
2024-02-02T07:37:23.509Z,3.80
2024-02-02T07:39:51.974Z,3.10
2024-02-02T07:42:21.478Z,3.63
2024-02-02T07:44:49.716Z,4.30
2024-02-02T07:47:17.855Z,4.17
2024-02-02T07:49:46.171Z,3.70
2024-02-02T07:52:14.277Z,4.37
2024-02-02T07:54:42.408Z,3.60
2024-02-02T07:57:11.783Z,3.53
2024-02-02T07:59:41.336Z,3.80
2024-02-02T08:02:09.508Z,4.10
2024-02-02T08:04:37.695Z,4.47
2024-02-02T08:07:06.333Z,4.20
2024-02-02T08:09:36.103Z,3.93
2024-02-02T08:12:04.427Z,3.77
2024-02-02T08:14:33.307Z,3.57
2024-02-02T08:17:04.310Z,4.23
2024-02-02T08:19:34.921Z,3.57
2024-02-02T08:22:04.733Z,4.20
2024-02-02T08:24:32.919Z,4.27
2024-02-02T08:27:02.205Z,4.03
2024-02-02T08:29:31.611Z,4.13
2024-02-02T08:31:59.787Z,3.40
2024-02-02T08:34:29.308Z,3.90
2024-02-02T08:37:03.154Z,4.00
2024-02-02T08:39:36.150Z,4.03
2024-02-02T08:42:16.485Z,4.13
2024-02-02T08:44:44.815Z,3.70
2024-02-02T08:47:16.359Z,3.90
2024-02-02T08:49:54.997Z,3.17
2024-02-02T08:52:32.302Z,3.57
2024-02-02T08:55:05.016Z,4.20
2024-02-02T08:57:37.946Z,4.00
2024-02-02T09:00:18.246Z,4.30
2024-02-02T09:03:15.469Z,3.10
2024-02-02T09:06:05.537Z,3.73
2024-02-02T09:08:36.551Z,3.97
2024-02-02T09:11:28.616Z,3.83
2024-02-02T09:14:08.354Z,3.77
2024-02-02T09:16:43.953Z,3.77
2024-02-02T09:19:29.341Z,4.13
2024-02-02T09:22:10.941Z,5.00
2024-02-02T09:24:44.209Z,4.57
2024-02-02T09:27:18.514Z,3.83
2024-02-02T09:29:48.593Z,3.40
2024-02-02T09:32:18.597Z,4.30
2024-02-02T09:34:48.153Z,3.87
2024-02-02T09:37:34.691Z,3.50
2024-02-02T09:40:08.580Z,4.00
2024-02-02T09:42:54.343Z,3.33
2024-02-02T09:45:54.283Z,4.63
2024-02-02T09:48:40.037Z,5.00
2024-02-02T09:51:18.931Z,3.73
2024-02-02T09:54:29.654Z,4.30
2024-02-02T09:57:04.708Z,4.57
2024-02-02T09:59:44.547Z,3.97
2024-02-02T10:02:30.615Z,3.93
2024-02-02T10:05:08.981Z,3.80
2024-02-02T10:07:47.312Z,3.77
2024-02-02T10:10:35.054Z,4.00
2024-02-02T10:13:16.308Z,4.57
2024-02-02T10:15:54.057Z,4.10
2024-02-02T10:18:38.898Z,4.13
2024-02-02T10:21:13.688Z,3.73
2024-02-02T10:24:11.736Z,4.10
2024-02-02T10:27:05.360Z,4.03
2024-02-02T10:29:44.691Z,4.00
2024-02-02T10:32:26.614Z,4.27
2024-02-02T10:35:10.430Z,4.60
2024-02-02T10:37:42.392Z,4.20
2024-02-02T10:40:30.409Z,4.53
2024-02-02T10:43:15.336Z,4.33
2024-02-02T10:45:50.031Z,4.27
2024-02-02T10:48:34.295Z,4.20
2024-02-02T10:51:11.853Z,4.30
2024-02-02T10:53:53.998Z,4.80
2024-02-02T10:56:31.376Z,4.70
2024-02-02T10:59:08.997Z,4.80
2024-02-02T11:01:48.297Z,5.33
2024-02-02T11:04:35.560Z,4.20
2024-02-02T11:07:21.432Z,4.40
2024-02-02T11:09:59.413Z,4.70
2024-02-02T11:12:37.306Z,4.17
2024-02-02T11:15:20.762Z,4.40
2024-02-02T11:17:57.426Z,4.37
2024-02-02T11:20:42.233Z,4.67
2024-02-02T11:23:18.030Z,4.80
2024-02-02T11:25:56.454Z,4.67
2024-02-02T11:28:31.316Z,4.93
2024-02-02T11:31:13.047Z,4.80
2024-02-02T11:33:49.782Z,4.53
2024-02-02T11:36:37.365Z,4.43
2024-02-02T11:39:21.866Z,4.67
2024-02-02T11:41:51.401Z,4.17
2024-02-02T11:44:25.037Z,4.53
2024-02-02T11:46:56.538Z,4.07
2024-02-02T11:49:34.211Z,4.20
2024-02-02T11:52:06.987Z,4.67
2024-02-02T11:54:43.469Z,4.70
2024-02-02T11:57:17.965Z,4.40
2024-02-02T11:59:54.910Z,3.40
2024-02-02T12:02:54.950Z,4.50
2024-02-02T12:05:29.958Z,4.53
2024-02-02T12:08:06.171Z,4.50
2024-02-02T12:10:40.616Z,4.77
2024-02-02T12:13:13.324Z,4.27
2024-02-02T12:15:42.929Z,4.33
2024-02-02T12:18:12.626Z,3.97
2024-02-02T12:20:42.432Z,4.30
2024-02-02T12:23:11.401Z,4.17
2024-02-02T12:25:39.738Z,4.57
2024-02-02T12:28:10.681Z,4.43
2024-02-02T12:30:38.934Z,4.03
2024-02-02T12:33:09.442Z,4.67
2024-02-02T12:35:39.487Z,4.60
2024-02-02T12:38:07.894Z,5.60
2024-02-02T12:40:37.036Z,4.60
2024-02-02T12:43:09.388Z,5.13
2024-02-02T12:45:39.998Z,4.20
2024-02-02T12:48:11.058Z,4.67
2024-02-02T12:50:40.757Z,5.20
2024-02-02T12:53:09.359Z,5.00
2024-02-02T12:55:37.560Z,4.97
2024-02-02T12:58:07.158Z,4.57
2024-02-02T13:00:35.405Z,5.50
2024-02-02T13:03:06.373Z,5.30
2024-02-02T13:05:36.509Z,4.83
2024-02-02T13:08:09.337Z,4.40
2024-02-02T13:10:40.417Z,4.27
2024-02-02T13:13:15.824Z,4.10
2024-02-02T13:15:44.096Z,4.30
2024-02-02T13:18:18.258Z,4.40
2024-02-02T13:20:51.360Z,3.93
2024-02-02T13:23:25.385Z,4.20
2024-02-02T13:25:54.764Z,4.97
2024-02-02T13:28:23.071Z,4.67
2024-02-02T13:30:55.505Z,4.53
2024-02-02T13:33:29.218Z,3.87
2024-02-02T13:36:00.437Z,4.40
2024-02-02T13:38:36.249Z,4.03
2024-02-02T13:41:05.611Z,5.53
2024-02-02T13:43:37.456Z,4.50
2024-02-02T13:46:06.954Z,4.57
2024-02-02T13:48:38.182Z,5.03
2024-02-02T13:51:07.919Z,5.63
2024-02-02T13:53:37.851Z,5.40
2024-02-02T13:56:12.149Z,5.20
2024-02-02T13:58:41.374Z,5.67
2024-02-02T14:01:21.749Z,5.83
2024-02-02T14:03:53.386Z,5.73
2024-02-02T14:06:23.644Z,5.73
2024-02-02T14:08:56.536Z,6.13
2024-02-02T14:11:26.733Z,5.67
2024-02-02T14:13:55.555Z,4.80
2024-02-02T14:16:25.219Z,5.17
2024-02-02T14:19:04.904Z,5.83
2024-02-02T14:21:35.317Z,5.20
2024-02-02T14:24:10.044Z,5.50
2024-02-02T14:26:49.191Z,5.43
2024-02-02T14:29:17.553Z,5.60
2024-02-02T14:31:46.802Z,5.93
2024-02-02T14:34:15.560Z,5.67
2024-02-02T14:36:43.971Z,6.47
2024-02-02T14:39:25.966Z,6.30
2024-02-02T14:41:57.496Z,6.23
2024-02-02T14:44:30.345Z,6.50
2024-02-02T14:47:01.126Z,5.90
2024-02-02T14:49:29.753Z,5.73
2024-02-02T14:51:58.496Z,5.70
2024-02-02T14:54:28.136Z,6.20
2024-02-02T14:56:57.114Z,6.57
2024-02-02T14:59:30.354Z,7.07
2024-02-02T15:01:59.454Z,6.53
2024-02-02T15:04:27.720Z,6.27
2024-02-02T15:06:58.261Z,6.27
2024-02-02T15:09:28.500Z,6.20
2024-02-02T15:12:04.180Z,6.33
2024-02-02T15:14:36.173Z,5.97
2024-02-02T15:17:05.375Z,6.20
2024-02-02T15:19:33.778Z,6.50
2024-02-02T15:22:02.179Z,6.50
2024-02-02T15:24:34.907Z,6.53
2024-02-02T15:27:03.433Z,6.90
2024-02-02T15:29:33.626Z,7.33
2024-02-02T15:32:02.629Z,8.13
2024-02-02T15:34:31.724Z,7.37
2024-02-02T15:37:00.070Z,7.03
2024-02-02T15:39:35.073Z,7.07
2024-02-02T15:42:12.512Z,7.20
2024-02-02T15:44:40.725Z,6.30
2024-02-02T15:47:09.812Z,7.13
2024-02-02T15:49:38.635Z,7.50
2024-02-02T15:52:07.872Z,7.17
2024-02-02T15:54:36.060Z,6.57
2024-02-02T15:57:05.546Z,7.17
2024-02-02T15:59:35.068Z,7.80
2024-02-02T16:02:06.477Z,7.50
2024-02-02T16:04:34.681Z,7.43
2024-02-02T16:07:04.989Z,7.70
2024-02-02T16:09:42.748Z,8.93
2024-02-02T16:12:13.859Z,8.40
2024-02-02T16:14:44.727Z,8.40
2024-02-02T16:17:12.955Z,8.77
2024-02-02T16:19:41.456Z,9.30
2024-02-02T16:22:10.484Z,9.47
2024-02-02T16:24:40.023Z,10.10
2024-02-02T16:27:11.434Z,10.00
2024-02-02T16:29:39.772Z,10.67
2024-02-02T16:32:10.267Z,9.93
2024-02-02T16:34:38.533Z,10.30
2024-02-02T16:37:06.893Z,10.47
2024-02-02T16:39:35.206Z,12.07
2024-02-02T16:42:03.530Z,11.03
2024-02-02T16:44:31.645Z,10.80
2024-02-02T16:47:01.615Z,10.30
2024-02-02T16:49:34.670Z,10.50
2024-02-02T16:52:03.635Z,10.77
2024-02-02T16:54:32.677Z,11.60
2024-02-02T16:57:00.959Z,11.53
2024-02-02T16:59:29.442Z,10.90
2024-02-02T17:02:01.190Z,10.53
2024-02-02T17:04:29.491Z,11.03
2024-02-02T17:07:01.441Z,10.00
2024-02-02T17:09:29.754Z,10.23
2024-02-02T17:12:02.613Z,10.53
2024-02-02T17:14:30.827Z,10.57
2024-02-02T17:16:59.873Z,9.97
2024-02-02T17:19:28.496Z,10.20
2024-02-02T17:21:58.059Z,10.07
2024-02-02T17:24:26.560Z,10.83
2024-02-02T17:26:54.870Z,9.57
2024-02-02T17:29:23.038Z,9.63
2024-02-02T17:31:52.613Z,9.67
2024-02-02T17:34:24.507Z,9.03
2024-02-02T17:36:52.821Z,9.47
2024-02-02T17:39:22.355Z,9.97
2024-02-02T17:41:51.511Z,8.53
2024-02-02T17:44:22.701Z,7.43
2024-02-02T17:46:53.716Z,8.00
2024-02-02T17:49:22.041Z,7.00
2024-02-02T17:51:54.865Z,7.43
2024-02-02T17:54:25.389Z,7.60
2024-02-02T17:56:54.630Z,6.67
2024-02-02T17:59:23.039Z,7.73
2024-02-02T18:01:54.497Z,7.00
2024-02-02T18:04:22.730Z,7.70
2024-02-02T18:06:50.934Z,7.63
2024-02-02T18:09:20.330Z,8.13
2024-02-02T18:11:49.867Z,8.70
2024-02-02T18:14:23.880Z,7.37
2024-02-02T18:16:52.167Z,7.53
2024-02-02T18:19:20.411Z,7.30
2024-02-02T18:21:48.632Z,8.33
2024-02-02T18:24:18.667Z,8.63
2024-02-02T18:26:50.393Z,8.60
2024-02-02T18:29:20.054Z,9.50
2024-02-02T18:31:51.579Z,9.10
2024-02-02T18:34:19.769Z,9.20
2024-02-02T18:36:48.585Z,8.90
2024-02-02T18:39:18.912Z,11.30
2024-02-02T18:41:47.836Z,9.03
2024-02-02T18:44:21.807Z,9.27
2024-02-02T18:46:53.802Z,9.97
2024-02-02T18:49:22.598Z,10.43
2024-02-02T18:51:51.046Z,10.17
2024-02-02T18:54:19.235Z,10.77
2024-02-02T18:56:47.572Z,10.90
2024-02-02T18:59:15.795Z,10.93
2024-02-02T19:01:45.401Z,11.10
2024-02-02T19:04:14.007Z,11.23
2024-02-02T19:06:42.354Z,11.53
2024-02-02T19:09:11.636Z,11.63
2024-02-02T19:11:39.841Z,11.33
2024-02-02T19:14:13.267Z,11.70
2024-02-02T19:16:42.501Z,10.87
2024-02-02T19:19:12.289Z,11.90
2024-02-02T19:21:45.388Z,11.70
2024-02-02T19:24:17.520Z,12.17
2024-02-02T19:26:45.699Z,11.20
2024-02-02T19:29:14.096Z,16.20
2024-02-02T19:31:42.353Z,11.20
2024-02-02T19:34:11.988Z,11.70
2024-02-02T19:36:40.312Z,11.67
2024-02-02T19:39:10.344Z,12.50
2024-02-02T19:41:38.623Z,11.10
2024-02-02T19:44:06.753Z,11.63
2024-02-02T19:46:35.559Z,12.33
2024-02-02T19:49:05.300Z,11.43
2024-02-02T19:51:35.910Z,11.30
2024-02-02T19:54:04.040Z,12.60
2024-02-02T19:56:33.327Z,12.50
2024-02-02T19:59:01.439Z,12.10
2024-02-02T20:01:30.182Z,11.27
2024-02-02T20:04:00.693Z,11.00
2024-02-02T20:06:30.134Z,11.63
2024-02-02T20:09:02.651Z,11.17
2024-02-02T20:11:31.729Z,10.73
2024-02-02T20:13:59.913Z,11.43
2024-02-02T20:16:28.592Z,11.70
2024-02-02T20:18:56.844Z,11.30
2024-02-02T20:21:29.714Z,11.10
2024-02-02T20:23:58.124Z,11.07
2024-02-02T20:26:27.638Z,11.57
2024-02-02T20:28:57.061Z,11.17
2024-02-02T20:31:25.423Z,11.70
2024-02-02T20:33:58.558Z,11.23
2024-02-02T20:36:29.624Z,11.77
2024-02-02T20:38:58.540Z,11.97
2024-02-02T20:41:28.067Z,11.40
2024-02-02T20:43:59.587Z,11.47
2024-02-02T20:46:27.844Z,14.20
2024-02-02T20:48:56.779Z,11.43
2024-02-02T20:51:25.408Z,11.40
2024-02-02T20:53:54.595Z,10.97
2024-02-02T20:56:25.417Z,11.93
2024-02-02T20:58:55.645Z,11.37
2024-02-02T21:01:27.703Z,12.20
2024-02-02T21:03:56.676Z,12.40
2024-02-02T21:06:25.773Z,11.67
2024-02-02T21:08:55.278Z,12.10
2024-02-02T21:11:24.558Z,11.87
2024-02-02T21:13:56.586Z,12.80
2024-02-02T21:16:29.513Z,12.00
2024-02-02T21:18:58.430Z,12.80
2024-02-02T21:21:26.674Z,12.57
2024-02-02T21:23:55.399Z,12.50
2024-02-02T21:26:29.468Z,12.43
2024-02-02T21:28:59.135Z,12.70
2024-02-02T21:31:27.535Z,12.63
2024-02-02T21:33:56.648Z,13.73
2024-02-02T21:36:25.663Z,12.80
2024-02-02T21:38:53.879Z,12.63
2024-02-02T21:41:25.926Z,13.73
2024-02-02T21:43:54.108Z,12.47
2024-02-02T21:46:23.872Z,13.00
2024-02-02T21:48:52.660Z,12.07
2024-02-02T21:51:20.904Z,12.13
2024-02-02T21:53:49.165Z,11.80
2024-02-02T21:56:17.334Z,11.60
2024-02-02T21:58:46.495Z,12.33
2024-02-02T22:01:15.680Z,11.83
2024-02-02T22:03:45.227Z,12.23
2024-02-02T22:06:15.153Z,13.70
2024-02-02T22:08:45.594Z,11.87
2024-02-02T22:11:14.449Z,12.90
2024-02-02T22:13:44.655Z,13.43
2024-02-02T22:16:16.580Z,11.80
2024-02-02T22:18:50.701Z,13.10
2024-02-02T22:21:23.937Z,14.27
2024-02-02T22:23:53.372Z,13.50
2024-02-02T22:26:22.558Z,13.10
2024-02-02T22:28:50.840Z,14.57
2024-02-02T22:31:24.733Z,13.63
2024-02-02T22:33:54.296Z,14.23
2024-02-02T22:36:26.620Z,13.30
2024-02-02T22:38:58.341Z,14.20
2024-02-02T22:41:33.475Z,13.37
2024-02-02T22:44:07.632Z,14.17
2024-02-02T22:46:35.762Z,13.23
2024-02-02T22:49:05.494Z,14.40
2024-02-02T22:51:33.833Z,14.63
2024-02-02T22:54:02.563Z,13.73
2024-02-02T22:56:31.578Z,13.83
2024-02-02T22:59:01.869Z,14.50
2024-02-02T23:01:30.167Z,14.70
2024-02-02T23:03:58.571Z,14.67
2024-02-02T23:06:28.714Z,13.93
2024-02-02T23:08:56.866Z,14.67
2024-02-02T23:11:25.692Z,15.13
2024-02-02T23:13:56.575Z,15.60
2024-02-02T23:16:24.866Z,15.13
2024-02-02T23:18:57.759Z,13.93
2024-02-02T23:21:27.345Z,14.27
2024-02-02T23:23:56.664Z,14.10
2024-02-02T23:26:25.641Z,14.97
2024-02-02T23:28:53.815Z,14.73
2024-02-02T23:31:22.656Z,15.00
2024-02-02T23:33:51.399Z,14.57
2024-02-02T23:36:19.694Z,14.43
2024-02-02T23:38:50.394Z,15.13
2024-02-02T23:41:18.930Z,14.17
2024-02-02T23:43:47.359Z,15.10
2024-02-02T23:46:15.577Z,13.10
2024-02-02T23:48:46.409Z,14.40
2024-02-02T23:51:15.011Z,13.40
2024-02-02T23:53:43.750Z,14.20
2024-02-02T23:56:13.264Z,13.47
2024-02-02T23:58:44.092Z,12.67
